sensor_id;sensor_type;location;lat;lon;timestamp;temperature;humidity
31443;SHT31;18065;55.876;9.830;2022-08-19T00:02:03;26.01;53.59
31443;SHT31;18065;55.876;9.830;2022-08-19T00:04:34;26.03;53.58
31443;SHT31;18065;55.876;9.830;2022-08-19T00:07:04;26.03;53.62
31443;SHT31;18065;55.876;9.830;2022-08-19T00:09:33;25.94;53.74
31443;SHT31;18065;55.876;9.830;2022-08-19T00:12:06;25.84;53.98
31443;SHT31;18065;55.876;9.830;2022-08-19T00:14:35;25.81;54.07
31443;SHT31;18065;55.876;9.830;2022-08-19T00:17:05;25.90;53.95
31443;SHT31;18065;55.876;9.830;2022-08-19T00:19:34;25.80;54.12
31443;SHT31;18065;55.876;9.830;2022-08-19T00:22:04;25.90;53.81
31443;SHT31;18065;55.876;9.830;2022-08-19T00:24:34;25.93;53.66
31443;SHT31;18065;55.876;9.830;2022-08-19T00:27:06;25.91;53.73
31443;SHT31;18065;55.876;9.830;2022-08-19T00:29:35;25.91;53.54
31443;SHT31;18065;55.876;9.830;2022-08-19T00:32:04;25.93;53.49
31443;SHT31;18065;55.876;9.830;2022-08-19T00:34:33;25.93;53.60
31443;SHT31;18065;55.876;9.830;2022-08-19T00:37:01;25.94;53.51
31443;SHT31;18065;55.876;9.830;2022-08-19T00:39:30;25.91;53.56
31443;SHT31;18065;55.876;9.830;2022-08-19T00:41:59;25.87;53.50
31443;SHT31;18065;55.876;9.830;2022-08-19T00:44:30;25.86;53.57
31443;SHT31;18065;55.876;9.830;2022-08-19T00:46:59;25.84;53.63
31443;SHT31;18065;55.876;9.830;2022-08-19T00:49:30;25.76;53.82
31443;SHT31;18065;55.876;9.830;2022-08-19T00:52:05;25.72;53.99
31443;SHT31;18065;55.876;9.830;2022-08-19T00:54:35;25.77;53.76
31443;SHT31;18065;55.876;9.830;2022-08-19T00:57:08;25.67;54.00
31443;SHT31;18065;55.876;9.830;2022-08-19T00:59:41;25.63;54.10
31443;SHT31;18065;55.876;9.830;2022-08-19T01:02:11;25.63;54.04
31443;SHT31;18065;55.876;9.830;2022-08-19T01:04:40;25.65;54.07
31443;SHT31;18065;55.876;9.830;2022-08-19T01:07:08;25.63;54.08
31443;SHT31;18065;55.876;9.830;2022-08-19T01:09:37;25.65;54.02
31443;SHT31;18065;55.876;9.830;2022-08-19T01:12:06;25.67;53.97
31443;SHT31;18065;55.876;9.830;2022-08-19T01:14:37;25.73;53.79
31443;SHT31;18065;55.876;9.830;2022-08-19T01:17:09;25.56;54.01
31443;SHT31;18065;55.876;9.830;2022-08-19T01:19:41;25.62;54.04
31443;SHT31;18065;55.876;9.830;2022-08-19T01:22:14;25.59;54.11
31443;SHT31;18065;55.876;9.830;2022-08-19T01:24:47;25.56;54.21
31443;SHT31;18065;55.876;9.830;2022-08-19T01:27:16;25.47;54.37
31443;SHT31;18065;55.876;9.830;2022-08-19T01:29:45;25.49;54.38
31443;SHT31;18065;55.876;9.830;2022-08-19T01:32:15;25.47;54.33
31443;SHT31;18065;55.876;9.830;2022-08-19T01:34:45;25.45;54.42
31443;SHT31;18065;55.876;9.830;2022-08-19T01:37:14;25.55;54.22
31443;SHT31;18065;55.876;9.830;2022-08-19T01:39:43;25.55;54.16
31443;SHT31;18065;55.876;9.830;2022-08-19T01:42:14;25.52;54.23
31443;SHT31;18065;55.876;9.830;2022-08-19T01:44:43;25.56;53.98
31443;SHT31;18065;55.876;9.830;2022-08-19T01:47:12;25.52;54.13
31443;SHT31;18065;55.876;9.830;2022-08-19T01:49:41;25.52;54.10
31443;SHT31;18065;55.876;9.830;2022-08-19T01:52:09;25.49;54.19
31443;SHT31;18065;55.876;9.830;2022-08-19T01:54:38;25.62;53.85
31443;SHT31;18065;55.876;9.830;2022-08-19T01:57:09;25.63;53.73
31443;SHT31;18065;55.876;9.830;2022-08-19T01:59:43;25.62;53.78
31443;SHT31;18065;55.876;9.830;2022-08-19T02:02:13;25.60;53.88
31443;SHT31;18065;55.876;9.830;2022-08-19T02:04:42;25.52;54.01
31443;SHT31;18065;55.876;9.830;2022-08-19T02:07:11;25.46;54.13
31443;SHT31;18065;55.876;9.830;2022-08-19T02:09:40;25.41;54.31
31443;SHT31;18065;55.876;9.830;2022-08-19T02:12:09;25.41;54.30
31443;SHT31;18065;55.876;9.830;2022-08-19T02:14:37;25.42;54.26
31443;SHT31;18065;55.876;9.830;2022-08-19T02:17:09;25.42;54.18
31443;SHT31;18065;55.876;9.830;2022-08-19T02:19:37;25.49;54.09
31443;SHT31;18065;55.876;9.830;2022-08-19T02:22:07;25.42;54.20
31443;SHT31;18065;55.876;9.830;2022-08-19T02:24:36;25.50;53.97
31443;SHT31;18065;55.876;9.830;2022-08-19T02:27:05;25.55;53.85
31443;SHT31;18065;55.876;9.830;2022-08-19T02:29:33;25.58;53.70
31443;SHT31;18065;55.876;9.830;2022-08-19T02:32:03;25.50;53.96
31443;SHT31;18065;55.876;9.830;2022-08-19T02:34:34;25.43;54.11
31443;SHT31;18065;55.876;9.830;2022-08-19T02:37:03;25.41;54.17
31443;SHT31;18065;55.876;9.830;2022-08-19T02:39:52;25.41;54.14
31443;SHT31;18065;55.876;9.830;2022-08-19T02:42:18;25.39;54.28
31443;SHT31;18065;55.876;9.830;2022-08-19T02:44:47;25.36;54.25
31443;SHT31;18065;55.876;9.830;2022-08-19T02:47:15;25.33;54.37
31443;SHT31;18065;55.876;9.830;2022-08-19T02:49:46;25.31;54.43
31443;SHT31;18065;55.876;9.830;2022-08-19T02:52:15;25.41;54.22
31443;SHT31;18065;55.876;9.830;2022-08-19T02:54:44;25.33;54.29
31443;SHT31;18065;55.876;9.830;2022-08-19T02:57:13;25.35;54.31
31443;SHT31;18065;55.876;9.830;2022-08-19T02:59:41;25.35;54.24
31443;SHT31;18065;55.876;9.830;2022-08-19T03:02:10;25.35;54.30
31443;SHT31;18065;55.876;9.830;2022-08-19T03:04:39;25.29;54.43
31443;SHT31;18065;55.876;9.830;2022-08-19T03:07:13;25.42;54.15
31443;SHT31;18065;55.876;9.830;2022-08-19T03:09:42;25.52;53.88
31443;SHT31;18065;55.876;9.830;2022-08-19T03:12:11;25.45;53.92
31443;SHT31;18065;55.876;9.830;2022-08-19T03:14:39;25.43;54.02
31443;SHT31;18065;55.876;9.830;2022-08-19T03:17:08;25.38;54.14
31443;SHT31;18065;55.876;9.830;2022-08-19T03:19:38;25.39;54.10
31443;SHT31;18065;55.876;9.830;2022-08-19T03:22:11;25.36;54.11
31443;SHT31;18065;55.876;9.830;2022-08-19T03:24:40;25.38;54.10
31443;SHT31;18065;55.876;9.830;2022-08-19T03:27:09;25.47;53.86
31443;SHT31;18065;55.876;9.830;2022-08-19T03:29:39;25.45;54.00
31443;SHT31;18065;55.876;9.830;2022-08-19T03:32:09;25.43;53.96
31443;SHT31;18065;55.876;9.830;2022-08-19T03:34:38;25.46;53.91
31443;SHT31;18065;55.876;9.830;2022-08-19T03:37:12;25.46;53.85
31443;SHT31;18065;55.876;9.830;2022-08-19T03:39:40;25.32;54.15
31443;SHT31;18065;55.876;9.830;2022-08-19T03:42:10;25.26;54.38
31443;SHT31;18065;55.876;9.830;2022-08-19T03:44:39;25.23;54.47
31443;SHT31;18065;55.876;9.830;2022-08-19T03:47:10;25.23;54.46
31443;SHT31;18065;55.876;9.830;2022-08-19T03:49:42;25.29;54.32
31443;SHT31;18065;55.876;9.830;2022-08-19T03:52:13;25.39;54.11
31443;SHT31;18065;55.876;9.830;2022-08-19T03:54:42;25.33;54.22
31443;SHT31;18065;55.876;9.830;2022-08-19T03:57:10;25.29;54.26
31443;SHT31;18065;55.876;9.830;2022-08-19T03:59:39;25.29;54.32
31443;SHT31;18065;55.876;9.830;2022-08-19T04:02:10;25.26;54.38
31443;SHT31;18065;55.876;9.830;2022-08-19T04:04:41;25.25;54.45
31443;SHT31;18065;55.876;9.830;2022-08-19T04:07:14;25.26;54.37
31443;SHT31;18065;55.876;9.830;2022-08-19T04:09:47;25.23;54.50
31443;SHT31;18065;55.876;9.830;2022-08-19T04:12:17;25.16;54.55
31443;SHT31;18065;55.876;9.830;2022-08-19T04:14:46;25.16;54.66
31443;SHT31;18065;55.876;9.830;2022-08-19T04:17:15;25.12;54.73
31443;SHT31;18065;55.876;9.830;2022-08-19T04:19:43;25.14;54.70
31443;SHT31;18065;55.876;9.830;2022-08-19T04:22:15;25.22;54.41
31443;SHT31;18065;55.876;9.830;2022-08-19T04:24:44;25.32;54.15
31443;SHT31;18065;55.876;9.830;2022-08-19T04:27:12;25.25;54.34
31443;SHT31;18065;55.876;9.830;2022-08-19T04:29:41;25.28;54.31
31443;SHT31;18065;55.876;9.830;2022-08-19T04:32:09;25.38;54.00
31443;SHT31;18065;55.876;9.830;2022-08-19T04:34:41;25.36;53.97
31443;SHT31;18065;55.876;9.830;2022-08-19T04:37:10;25.26;54.15
31443;SHT31;18065;55.876;9.830;2022-08-19T04:39:42;25.28;54.10
31443;SHT31;18065;55.876;9.830;2022-08-19T04:42:23;25.28;54.17
31443;SHT31;18065;55.876;9.830;2022-08-19T04:45:08;25.18;54.36
31443;SHT31;18065;55.876;9.830;2022-08-19T04:47:39;25.21;54.24
31443;SHT31;18065;55.876;9.830;2022-08-19T04:50:09;25.19;54.33
31443;SHT31;18065;55.876;9.830;2022-08-19T04:52:38;25.15;54.42
31443;SHT31;18065;55.876;9.830;2022-08-19T04:55:12;25.15;54.41
31443;SHT31;18065;55.876;9.830;2022-08-19T04:57:40;25.22;54.24
31443;SHT31;18065;55.876;9.830;2022-08-19T05:00:11;25.22;54.08
31443;SHT31;18065;55.876;9.830;2022-08-19T05:02:40;25.25;54.11
31443;SHT31;18065;55.876;9.830;2022-08-19T05:05:09;25.25;54.04
31443;SHT31;18065;55.876;9.830;2022-08-19T05:07:38;25.26;54.05
31443;SHT31;18065;55.876;9.830;2022-08-19T05:10:08;25.22;54.03
31443;SHT31;18065;55.876;9.830;2022-08-19T05:12:39;25.22;54.09
31443;SHT31;18065;55.876;9.830;2022-08-19T05:15:09;25.25;53.91
31443;SHT31;18065;55.876;9.830;2022-08-19T05:17:40;25.19;54.00
31443;SHT31;18065;55.876;9.830;2022-08-19T05:20:30;25.07;54.24
31443;SHT31;18065;55.876;9.830;2022-08-19T05:23:11;25.08;54.32
31443;SHT31;18065;55.876;9.830;2022-08-19T05:25:41;25.07;54.30
31443;SHT31;18065;55.876;9.830;2022-08-19T05:28:13;25.11;54.24
31443;SHT31;18065;55.876;9.830;2022-08-19T05:30:41;25.14;54.17
31443;SHT31;18065;55.876;9.830;2022-08-19T05:33:10;25.19;53.85
31443;SHT31;18065;55.876;9.830;2022-08-19T05:35:39;25.18;53.99
31443;SHT31;18065;55.876;9.830;2022-08-19T05:38:10;25.16;54.09
31443;SHT31;18065;55.876;9.830;2022-08-19T05:40:39;25.15;54.03
31443;SHT31;18065;55.876;9.830;2022-08-19T05:43:14;25.18;53.99
31443;SHT31;18065;55.876;9.830;2022-08-19T05:45:44;25.18;53.92
31443;SHT31;18065;55.876;9.830;2022-08-19T05:48:13;25.19;53.86
31443;SHT31;18065;55.876;9.830;2022-08-19T05:50:43;25.21;53.86
31443;SHT31;18065;55.876;9.830;2022-08-19T05:53:15;25.18;53.88
31443;SHT31;18065;55.876;9.830;2022-08-19T05:55:44;25.22;53.81
31443;SHT31;18065;55.876;9.830;2022-08-19T05:58:16;25.18;53.85
31443;SHT31;18065;55.876;9.830;2022-08-19T06:00:44;25.14;53.95
31443;SHT31;18065;55.876;9.830;2022-08-19T06:03:13;25.15;53.90
31443;SHT31;18065;55.876;9.830;2022-08-19T06:05:41;25.18;53.82
31443;SHT31;18065;55.876;9.830;2022-08-19T06:08:11;25.21;53.61
31443;SHT31;18065;55.876;9.830;2022-08-19T06:10:40;25.16;53.76
31443;SHT31;18065;55.876;9.830;2022-08-19T06:13:08;25.10;53.98
31443;SHT31;18065;55.876;9.830;2022-08-19T06:15:40;25.07;53.99
31443;SHT31;18065;55.876;9.830;2022-08-19T06:18:09;25.10;54.01
31443;SHT31;18065;55.876;9.830;2022-08-19T06:20:38;25.15;53.79
31443;SHT31;18065;55.876;9.830;2022-08-19T06:23:07;25.12;53.78
31443;SHT31;18065;55.876;9.830;2022-08-19T06:25:36;25.11;53.83
31443;SHT31;18065;55.876;9.830;2022-08-19T06:28:05;25.11;53.84
31443;SHT31;18065;55.876;9.830;2022-08-19T06:30:35;25.11;53.91
31443;SHT31;18065;55.876;9.830;2022-08-19T06:33:07;25.10;53.88
31443;SHT31;18065;55.876;9.830;2022-08-19T06:35:38;25.14;53.76
31443;SHT31;18065;55.876;9.830;2022-08-19T06:38:07;25.10;53.85
31443;SHT31;18065;55.876;9.830;2022-08-19T06:40:36;25.14;53.86
31443;SHT31;18065;55.876;9.830;2022-08-19T06:43:05;25.16;53.72
31443;SHT31;18065;55.876;9.830;2022-08-19T06:45:36;25.25;53.48
31443;SHT31;18065;55.876;9.830;2022-08-19T06:48:08;25.23;53.60
31443;SHT31;18065;55.876;9.830;2022-08-19T06:50:36;25.23;53.60
31443;SHT31;18065;55.876;9.830;2022-08-19T06:53:05;25.22;53.67
31443;SHT31;18065;55.876;9.830;2022-08-19T06:55:34;25.31;53.54
31443;SHT31;18065;55.876;9.830;2022-08-19T06:58:03;25.26;53.63
31443;SHT31;18065;55.876;9.830;2022-08-19T07:00:32;25.21;53.66
31443;SHT31;18065;55.876;9.830;2022-08-19T07:03:02;25.23;53.56
31443;SHT31;18065;55.876;9.830;2022-08-19T07:05:38;25.19;53.79
31443;SHT31;18065;55.876;9.830;2022-08-19T07:08:07;25.14;54.04
31443;SHT31;18065;55.876;9.830;2022-08-19T07:10:35;25.14;54.03
31443;SHT31;18065;55.876;9.830;2022-08-19T07:13:04;25.15;54.00
31443;SHT31;18065;55.876;9.830;2022-08-19T07:15:33;25.12;54.13
31443;SHT31;18065;55.876;9.830;2022-08-19T07:18:03;25.05;54.20
31443;SHT31;18065;55.876;9.830;2022-08-19T07:20:34;25.11;54.15
31443;SHT31;18065;55.876;9.830;2022-08-19T07:23:04;25.14;54.00
31443;SHT31;18065;55.876;9.830;2022-08-19T07:25:33;25.12;54.02
31443;SHT31;18065;55.876;9.830;2022-08-19T07:28:02;25.12;54.05
31443;SHT31;18065;55.876;9.830;2022-08-19T07:30:36;25.11;54.06
31443;SHT31;18065;55.876;9.830;2022-08-19T07:33:06;25.10;54.16
31443;SHT31;18065;55.876;9.830;2022-08-19T07:35:37;25.11;54.16
31443;SHT31;18065;55.876;9.830;2022-08-19T07:38:06;25.08;54.13
31443;SHT31;18065;55.876;9.830;2022-08-19T07:40:35;25.05;54.21
31443;SHT31;18065;55.876;9.830;2022-08-19T07:43:04;25.07;54.25
31443;SHT31;18065;55.876;9.830;2022-08-19T07:45:32;25.07;54.20
31443;SHT31;18065;55.876;9.830;2022-08-19T07:48:01;25.12;54.09
31443;SHT31;18065;55.876;9.830;2022-08-19T07:50:30;25.23;53.79
31443;SHT31;18065;55.876;9.830;2022-08-19T07:53:01;25.29;53.71
31443;SHT31;18065;55.876;9.830;2022-08-19T07:55:30;25.22;53.98
31443;SHT31;18065;55.876;9.830;2022-08-19T07:57:59;25.15;54.11
31443;SHT31;18065;55.876;9.830;2022-08-19T08:00:30;25.16;54.12
31443;SHT31;18065;55.876;9.830;2022-08-19T08:02:59;25.12;54.26
31443;SHT31;18065;55.876;9.830;2022-08-19T08:05:27;25.11;54.22
31443;SHT31;18065;55.876;9.830;2022-08-19T08:08:11;25.10;54.33
31443;SHT31;18065;55.876;9.830;2022-08-19T08:10:52;25.10;54.34
31443;SHT31;18065;55.876;9.830;2022-08-19T08:13:21;25.08;54.39
31443;SHT31;18065;55.876;9.830;2022-08-19T08:15:50;25.15;54.27
31443;SHT31;18065;55.876;9.830;2022-08-19T08:18:19;25.14;54.30
31443;SHT31;18065;55.876;9.830;2022-08-19T08:20:47;25.26;53.99
31443;SHT31;18065;55.876;9.830;2022-08-19T08:23:19;25.21;54.06
31443;SHT31;18065;55.876;9.830;2022-08-19T08:25:57;25.25;54.04
31443;SHT31;18065;55.876;9.830;2022-08-19T08:28:27;25.32;53.78
31443;SHT31;18065;55.876;9.830;2022-08-19T08:30:57;25.29;53.90
31443;SHT31;18065;55.876;9.830;2022-08-19T08:33:27;25.26;54.04
31443;SHT31;18065;55.876;9.830;2022-08-19T08:35:56;25.32;53.94
31443;SHT31;18065;55.876;9.830;2022-08-19T08:38:27;25.29;54.02
31443;SHT31;18065;55.876;9.830;2022-08-19T08:41:00;25.25;54.14
31443;SHT31;18065;55.876;9.830;2022-08-19T08:43:34;25.26;54.20
31443;SHT31;18065;55.876;9.830;2022-08-19T08:46:04;25.26;54.08
31443;SHT31;18065;55.876;9.830;2022-08-19T08:48:39;25.33;54.06
31443;SHT31;18065;55.876;9.830;2022-08-19T08:51:15;25.35;54.04
31443;SHT31;18065;55.876;9.830;2022-08-19T08:53:49;25.38;53.97
31443;SHT31;18065;55.876;9.830;2022-08-19T08:56:19;25.41;53.95
31443;SHT31;18065;55.876;9.830;2022-08-19T08:58:53;25.38;54.14
31443;SHT31;18065;55.876;9.830;2022-08-19T09:01:22;25.32;54.28
31443;SHT31;18065;55.876;9.830;2022-08-19T09:03:51;25.33;54.31
31443;SHT31;18065;55.876;9.830;2022-08-19T09:06:25;25.33;54.30
31443;SHT31;18065;55.876;9.830;2022-08-19T09:09:02;25.35;54.27
31443;SHT31;18065;55.876;9.830;2022-08-19T09:11:42;25.46;54.02
31443;SHT31;18065;55.876;9.830;2022-08-19T09:14:20;25.46;53.95
31443;SHT31;18065;55.876;9.830;2022-08-19T09:16:55;25.43;53.98
31443;SHT31;18065;55.876;9.830;2022-08-19T09:19:25;25.42;54.07
31443;SHT31;18065;55.876;9.830;2022-08-19T09:21:53;25.41;54.09
31443;SHT31;18065;55.876;9.830;2022-08-19T09:24:25;25.39;54.17
31443;SHT31;18065;55.876;9.830;2022-08-19T09:26:53;25.36;54.29
31443;SHT31;18065;55.876;9.830;2022-08-19T09:29:22;25.22;54.66
31443;SHT31;18065;55.876;9.830;2022-08-19T09:31:51;25.31;54.61
31443;SHT31;18065;55.876;9.830;2022-08-19T09:34:20;25.33;54.48
31443;SHT31;18065;55.876;9.830;2022-08-19T09:36:49;25.36;54.35
31443;SHT31;18065;55.876;9.830;2022-08-19T09:39:21;25.41;54.40
31443;SHT31;18065;55.876;9.830;2022-08-19T09:41:52;25.36;54.54
31443;SHT31;18065;55.876;9.830;2022-08-19T09:44:21;25.33;54.88
31443;SHT31;18065;55.876;9.830;2022-08-19T09:46:50;25.32;54.86
31443;SHT31;18065;55.876;9.830;2022-08-19T09:49:20;25.23;55.12
31443;SHT31;18065;55.876;9.830;2022-08-19T09:51:50;25.21;55.42
31443;SHT31;18065;55.876;9.830;2022-08-19T09:54:21;25.22;55.36
31443;SHT31;18065;55.876;9.830;2022-08-19T09:56:53;25.26;55.17
31443;SHT31;18065;55.876;9.830;2022-08-19T09:59:22;25.28;55.16
31443;SHT31;18065;55.876;9.830;2022-08-19T10:01:50;25.35;55.11
31443;SHT31;18065;55.876;9.830;2022-08-19T10:04:20;25.35;55.11
31443;SHT31;18065;55.876;9.830;2022-08-19T10:07:09;25.25;55.40
31443;SHT31;18065;55.876;9.830;2022-08-19T10:09:38;25.32;55.14
31443;SHT31;18065;55.876;9.830;2022-08-19T10:12:09;25.29;55.28
31443;SHT31;18065;55.876;9.830;2022-08-19T10:14:38;25.32;55.35
31443;SHT31;18065;55.876;9.830;2022-08-19T10:17:06;25.29;55.46
31443;SHT31;18065;55.876;9.830;2022-08-19T10:19:35;25.28;55.61
31443;SHT31;18065;55.876;9.830;2022-08-19T10:22:05;25.35;55.28
31443;SHT31;18065;55.876;9.830;2022-08-19T10:24:36;25.29;55.69
31443;SHT31;18065;55.876;9.830;2022-08-19T10:27:05;25.28;55.81
31443;SHT31;18065;55.876;9.830;2022-08-19T10:29:37;25.23;55.93
31443;SHT31;18065;55.876;9.830;2022-08-19T10:32:07;25.29;55.70
31443;SHT31;18065;55.876;9.830;2022-08-19T10:34:37;25.38;55.61
31443;SHT31;18065;55.876;9.830;2022-08-19T10:37:06;25.33;55.79
31443;SHT31;18065;55.876;9.830;2022-08-19T10:39:36;25.36;55.76
31443;SHT31;18065;55.876;9.830;2022-08-19T10:42:05;25.33;55.85
31443;SHT31;18065;55.876;9.830;2022-08-19T10:44:38;25.26;56.26
31443;SHT31;18065;55.876;9.830;2022-08-19T10:47:07;25.29;56.36
31443;SHT31;18065;55.876;9.830;2022-08-19T10:49:37;25.36;56.08
31443;SHT31;18065;55.876;9.830;2022-08-19T10:52:26;25.43;55.83
31443;SHT31;18065;55.876;9.830;2022-08-19T10:55:03;25.41;56.15
31443;SHT31;18065;55.876;9.830;2022-08-19T10:57:45;25.43;56.36
31443;SHT31;18065;55.876;9.830;2022-08-19T11:00:16;25.43;56.50
31443;SHT31;18065;55.876;9.830;2022-08-19T11:02:46;25.42;56.43
31443;SHT31;18065;55.876;9.830;2022-08-19T11:05:15;25.43;56.59
31443;SHT31;18065;55.876;9.830;2022-08-19T11:07:44;25.45;56.55
31443;SHT31;18065;55.876;9.830;2022-08-19T11:10:16;25.46;56.56
31443;SHT31;18065;55.876;9.830;2022-08-19T11:12:45;25.49;56.54
31443;SHT31;18065;55.876;9.830;2022-08-19T11:15:18;25.46;56.69
31443;SHT31;18065;55.876;9.830;2022-08-19T11:17:47;25.46;56.67
31443;SHT31;18065;55.876;9.830;2022-08-19T11:20:19;25.39;56.93
31443;SHT31;18065;55.876;9.830;2022-08-19T11:22:51;25.31;57.22
31443;SHT31;18065;55.876;9.830;2022-08-19T11:25:20;25.31;57.47
31443;SHT31;18065;55.876;9.830;2022-08-19T11:27:48;25.31;57.42
31443;SHT31;18065;55.876;9.830;2022-08-19T11:30:20;25.26;57.60
31443;SHT31;18065;55.876;9.830;2022-08-19T11:32:48;25.25;57.66
31443;SHT31;18065;55.876;9.830;2022-08-19T11:35:17;25.31;57.54
31443;SHT31;18065;55.876;9.830;2022-08-19T11:37:47;25.28;57.62
31443;SHT31;18065;55.876;9.830;2022-08-19T11:40:16;25.29;57.76
31443;SHT31;18065;55.876;9.830;2022-08-19T11:42:45;25.29;57.73
31443;SHT31;18065;55.876;9.830;2022-08-19T11:45:28;25.26;57.94
31443;SHT31;18065;55.876;9.830;2022-08-19T11:47:58;25.23;58.03
31443;SHT31;18065;55.876;9.830;2022-08-19T11:50:27;25.28;58.05
31443;SHT31;18065;55.876;9.830;2022-08-19T11:52:56;25.23;58.43
31443;SHT31;18065;55.876;9.830;2022-08-19T11:55:25;25.15;58.70
31443;SHT31;18065;55.876;9.830;2022-08-19T11:57:54;25.18;58.58
31443;SHT31;18065;55.876;9.830;2022-08-19T12:00:23;25.26;58.27
31443;SHT31;18065;55.876;9.830;2022-08-19T12:02:54;25.23;58.30
31443;SHT31;18065;55.876;9.830;2022-08-19T12:05:23;25.19;58.24
31443;SHT31;18065;55.876;9.830;2022-08-19T12:07:51;25.23;58.13
31443;SHT31;18065;55.876;9.830;2022-08-19T12:10:20;25.32;57.96
31443;SHT31;18065;55.876;9.830;2022-08-19T12:12:49;25.29;58.14
31443;SHT31;18065;55.876;9.830;2022-08-19T12:15:17;25.32;58.08
31443;SHT31;18065;55.876;9.830;2022-08-19T12:17:46;25.35;58.18
31443;SHT31;18065;55.876;9.830;2022-08-19T12:20:17;25.33;58.19
31443;SHT31;18065;55.876;9.830;2022-08-19T12:22:46;25.32;58.20
31443;SHT31;18065;55.876;9.830;2022-08-19T12:25:15;25.33;58.03
31443;SHT31;18065;55.876;9.830;2022-08-19T12:27:44;25.36;57.97
31443;SHT31;18065;55.876;9.830;2022-08-19T12:30:13;25.36;58.13
31443;SHT31;18065;55.876;9.830;2022-08-19T12:32:42;25.32;58.22
31443;SHT31;18065;55.876;9.830;2022-08-19T12:35:10;25.31;58.30
31443;SHT31;18065;55.876;9.830;2022-08-19T12:37:42;25.33;58.21
31443;SHT31;18065;55.876;9.830;2022-08-19T12:40:11;25.36;58.12
31443;SHT31;18065;55.876;9.830;2022-08-19T12:42:40;25.35;58.25
31443;SHT31;18065;55.876;9.830;2022-08-19T12:45:10;25.33;58.28
31443;SHT31;18065;55.876;9.830;2022-08-19T12:47:39;25.38;58.19
31443;SHT31;18065;55.876;9.830;2022-08-19T12:50:08;25.39;58.28
31443;SHT31;18065;55.876;9.830;2022-08-19T12:52:37;25.39;57.98
31443;SHT31;18065;55.876;9.830;2022-08-19T12:55:10;25.35;58.06
31443;SHT31;18065;55.876;9.830;2022-08-19T12:57:39;25.32;58.17
31443;SHT31;18065;55.876;9.830;2022-08-19T13:00:11;25.33;58.03
31443;SHT31;18065;55.876;9.830;2022-08-19T13:02:44;25.42;57.85
31443;SHT31;18065;55.876;9.830;2022-08-19T13:05:18;25.46;57.78
31443;SHT31;18065;55.876;9.830;2022-08-19T13:07:49;25.49;57.54
31443;SHT31;18065;55.876;9.830;2022-08-19T13:10:20;25.55;57.63
31443;SHT31;18065;55.876;9.830;2022-08-19T13:12:51;25.56;58.00
31443;SHT31;18065;55.876;9.830;2022-08-19T13:15:21;25.58;57.78
31443;SHT31;18065;55.876;9.830;2022-08-19T13:17:52;25.63;57.59
31443;SHT31;18065;55.876;9.830;2022-08-19T13:20:21;25.69;57.64
31443;SHT31;18065;55.876;9.830;2022-08-19T13:22:50;25.72;57.64
31443;SHT31;18065;55.876;9.830;2022-08-19T13:25:21;25.73;57.37
31443;SHT31;18065;55.876;9.830;2022-08-19T13:27:51;25.74;57.42
31443;SHT31;18065;55.876;9.830;2022-08-19T13:30:21;25.77;57.18
31443;SHT31;18065;55.876;9.830;2022-08-19T13:33:02;25.83;57.02
31443;SHT31;18065;55.876;9.830;2022-08-19T13:35:43;25.84;57.50
31443;SHT31;18065;55.876;9.830;2022-08-19T13:38:13;25.86;57.23
31443;SHT31;18065;55.876;9.830;2022-08-19T13:40:45;25.87;57.07
31443;SHT31;18065;55.876;9.830;2022-08-19T13:43:16;25.90;57.02
31443;SHT31;18065;55.876;9.830;2022-08-19T13:45:44;25.89;56.86
31443;SHT31;18065;55.876;9.830;2022-08-19T13:48:13;25.93;56.83
31443;SHT31;18065;55.876;9.830;2022-08-19T13:50:44;25.96;56.65
31443;SHT31;18065;55.876;9.830;2022-08-19T13:53:13;25.98;56.63
31443;SHT31;18065;55.876;9.830;2022-08-19T13:55:45;26.01;56.62
31443;SHT31;18065;55.876;9.830;2022-08-19T13:58:15;26.00;56.93
31443;SHT31;18065;55.876;9.830;2022-08-19T14:00:45;26.01;56.99
31443;SHT31;18065;55.876;9.830;2022-08-19T14:03:15;26.03;56.95
31443;SHT31;18065;55.876;9.830;2022-08-19T14:05:44;26.03;56.80
31443;SHT31;18065;55.876;9.830;2022-08-19T14:08:12;26.05;56.46
31443;SHT31;18065;55.876;9.830;2022-08-19T14:10:41;26.05;56.59
31443;SHT31;18065;55.876;9.830;2022-08-19T14:13:15;26.05;57.01
31443;SHT31;18065;55.876;9.830;2022-08-19T14:15:44;26.10;56.97
31443;SHT31;18065;55.876;9.830;2022-08-19T14:18:13;26.08;56.50
31443;SHT31;18065;55.876;9.830;2022-08-19T14:20:42;26.10;56.55
31443;SHT31;18065;55.876;9.830;2022-08-19T14:23:11;26.10;56.54
31443;SHT31;18065;55.876;9.830;2022-08-19T14:25:40;26.10;56.69
31443;SHT31;18065;55.876;9.830;2022-08-19T14:28:09;26.11;56.43
31443;SHT31;18065;55.876;9.830;2022-08-19T14:30:41;26.14;56.55
31443;SHT31;18065;55.876;9.830;2022-08-19T14:33:10;26.14;56.67
31443;SHT31;18065;55.876;9.830;2022-08-19T14:35:39;26.17;56.67
31443;SHT31;18065;55.876;9.830;2022-08-19T14:38:15;26.16;56.45
31443;SHT31;18065;55.876;9.830;2022-08-19T14:40:44;26.17;56.23
31443;SHT31;18065;55.876;9.830;2022-08-19T14:43:14;26.20;56.45
31443;SHT31;18065;55.876;9.830;2022-08-19T14:45:45;26.18;56.44
31443;SHT31;18065;55.876;9.830;2022-08-19T14:48:14;26.20;56.21
31443;SHT31;18065;55.876;9.830;2022-08-19T14:50:43;26.18;57.06
31443;SHT31;18065;55.876;9.830;2022-08-19T14:53:11;26.18;56.35
31443;SHT31;18065;55.876;9.830;2022-08-19T14:55:41;26.24;56.12
31443;SHT31;18065;55.876;9.830;2022-08-19T14:58:11;26.25;56.31
31443;SHT31;18065;55.876;9.830;2022-08-19T15:00:40;26.25;56.23
31443;SHT31;18065;55.876;9.830;2022-08-19T15:03:11;26.30;56.17
31443;SHT31;18065;55.876;9.830;2022-08-19T15:05:40;26.30;56.22
31443;SHT31;18065;55.876;9.830;2022-08-19T15:08:09;26.31;56.13
31443;SHT31;18065;55.876;9.830;2022-08-19T15:10:38;26.28;56.24
31443;SHT31;18065;55.876;9.830;2022-08-19T15:13:07;26.32;56.08
31443;SHT31;18065;55.876;9.830;2022-08-19T15:15:36;26.31;56.26
31443;SHT31;18065;55.876;9.830;2022-08-19T15:18:05;26.28;56.45
31443;SHT31;18065;55.876;9.830;2022-08-19T15:20:36;26.22;56.95
31443;SHT31;18065;55.876;9.830;2022-08-19T15:23:06;26.24;56.64
31443;SHT31;18065;55.876;9.830;2022-08-19T15:25:36;26.20;57.17
31443;SHT31;18065;55.876;9.830;2022-08-19T15:28:07;26.04;57.52
31443;SHT31;18065;55.876;9.830;2022-08-19T15:30:37;26.08;57.45
31443;SHT31;18065;55.876;9.830;2022-08-19T15:33:06;26.11;57.15
31443;SHT31;18065;55.876;9.830;2022-08-19T15:35:38;26.14;56.77
31443;SHT31;18065;55.876;9.830;2022-08-19T15:38:07;26.16;56.98
31443;SHT31;18065;55.876;9.830;2022-08-19T15:40:38;26.16;56.91
31443;SHT31;18065;55.876;9.830;2022-08-19T15:43:07;26.17;57.26
31443;SHT31;18065;55.876;9.830;2022-08-19T15:45:36;26.14;57.57
31443;SHT31;18065;55.876;9.830;2022-08-19T15:48:06;26.14;57.83
31443;SHT31;18065;55.876;9.830;2022-08-19T15:50:38;26.14;58.12